sensor_id;sensor_type;location;lat;lon;timestamp;temperature;humidity
31575;DHT22;18182;1.328;103.810;2022-08-05T00:01:41;27.90;99.90
31575;DHT22;18182;1.328;103.810;2022-08-05T00:04:07;27.80;99.90
31575;DHT22;18182;1.328;103.810;2022-08-05T00:06:33;27.80;99.90
31575;DHT22;18182;1.328;103.810;2022-08-05T00:09:00;27.80;99.90
31575;DHT22;18182;1.328;103.810;2022-08-05T00:11:26;27.80;99.90
31575;DHT22;18182;1.328;103.810;2022-08-05T00:13:52;27.70;99.90
31575;DHT22;18182;1.328;103.810;2022-08-05T00:16:19;27.70;99.90
31575;DHT22;18182;1.328;103.810;2022-08-05T00:18:45;27.70;99.90
31575;DHT22;18182;1.328;103.810;2022-08-05T00:21:12;27.70;99.90
31575;DHT22;18182;1.328;103.810;2022-08-05T00:23:39;27.70;99.90
31575;DHT22;18182;1.328;103.810;2022-08-05T00:26:06;27.70;99.90
31575;DHT22;18182;1.328;103.810;2022-08-05T00:28:33;27.70;99.90
31575;DHT22;18182;1.328;103.810;2022-08-05T00:30:59;27.70;99.90
31575;DHT22;18182;1.328;103.810;2022-08-05T00:33:25;27.80;99.90
31575;DHT22;18182;1.328;103.810;2022-08-05T00:35:51;27.80;99.90
31575;DHT22;18182;1.328;103.810;2022-08-05T00:38:18;27.80;99.90
31575;DHT22;18182;1.328;103.810;2022-08-05T00:40:48;27.80;99.90
31575;DHT22;18182;1.328;103.810;2022-08-05T00:43:14;27.80;99.90
31575;DHT22;18182;1.328;103.810;2022-08-05T00:45:41;27.80;99.90
31575;DHT22;18182;1.328;103.810;2022-08-05T00:48:12;27.90;99.90
31575;DHT22;18182;1.328;103.810;2022-08-05T00:50:39;27.90;99.90
31575;DHT22;18182;1.328;103.810;2022-08-05T00:53:05;27.90;99.90
31575;DHT22;18182;1.328;103.810;2022-08-05T00:55:31;27.90;99.90
31575;DHT22;18182;1.328;103.810;2022-08-05T00:57:58;27.90;99.90
31575;DHT22;18182;1.328;103.810;2022-08-05T01:00:27;27.90;99.90
31575;DHT22;18182;1.328;103.810;2022-08-05T01:02:54;28.00;99.90
31575;DHT22;18182;1.328;103.810;2022-08-05T01:05:20;28.00;99.90
31575;DHT22;18182;1.328;103.810;2022-08-05T01:07:46;28.20;99.90
31575;DHT22;18182;1.328;103.810;2022-08-05T01:10:13;28.20;99.90
31575;DHT22;18182;1.328;103.810;2022-08-05T01:12:42;28.20;99.90
31575;DHT22;18182;1.328;103.810;2022-08-05T01:15:10;28.20;99.90
31575;DHT22;18182;1.328;103.810;2022-08-05T01:17:38;28.30;99.90
31575;DHT22;18182;1.328;103.810;2022-08-05T01:30:08;28.40;99.90
31575;DHT22;18182;1.328;103.810;2022-08-05T01:32:34;28.40;99.90
31575;DHT22;18182;1.328;103.810;2022-08-05T01:35:05;28.40;99.90
31575;DHT22;18182;1.328;103.810;2022-08-05T01:37:38;28.50;99.90
31575;DHT22;18182;1.328;103.810;2022-08-05T01:40:04;28.50;99.90
31575;DHT22;18182;1.328;103.810;2022-08-05T01:42:32;28.60;99.90
31575;DHT22;18182;1.328;103.810;2022-08-05T01:44:59;28.60;99.90
31575;DHT22;18182;1.328;103.810;2022-08-05T01:47:27;28.60;99.90
31575;DHT22;18182;1.328;103.810;2022-08-05T01:49:54;28.60;99.90
31575;DHT22;18182;1.328;103.810;2022-08-05T01:52:22;28.70;99.90
31575;DHT22;18182;1.328;103.810;2022-08-05T01:54:56;28.70;99.90
31575;DHT22;18182;1.328;103.810;2022-08-05T01:57:27;28.70;99.90
31575;DHT22;18182;1.328;103.810;2022-08-05T01:59:56;28.70;99.90
31575;DHT22;18182;1.328;103.810;2022-08-05T02:02:23;28.80;99.90
31575;DHT22;18182;1.328;103.810;2022-08-05T02:04:50;28.80;99.90
31575;DHT22;18182;1.328;103.810;2022-08-05T02:07:17;28.70;99.90
31575;DHT22;18182;1.328;103.810;2022-08-05T02:09:43;28.70;99.90
31575;DHT22;18182;1.328;103.810;2022-08-05T02:14:43;28.70;99.90
31575;DHT22;18182;1.328;103.810;2022-08-05T02:17:34;28.70;99.90
31575;DHT22;18182;1.328;103.810;2022-08-05T02:19:59;28.70;99.90
31575;DHT22;18182;1.328;103.810;2022-08-05T02:22:31;28.70;99.90
31575;DHT22;18182;1.328;103.810;2022-08-05T02:25:04;28.80;99.90
31575;DHT22;18182;1.328;103.810;2022-08-05T02:27:32;28.80;99.90
31575;DHT22;18182;1.328;103.810;2022-08-05T02:29:59;28.80;99.90
31575;DHT22;18182;1.328;103.810;2022-08-05T02:32:26;28.90;99.90
31575;DHT22;18182;1.328;103.810;2022-08-05T02:34:53;28.90;99.90
31575;DHT22;18182;1.328;103.810;2022-08-05T02:37:19;29.00;99.90
31575;DHT22;18182;1.328;103.810;2022-08-05T02:39:46;29.00;99.90
31575;DHT22;18182;1.328;103.810;2022-08-05T02:42:12;29.00;99.90
31575;DHT22;18182;1.328;103.810;2022-08-05T02:44:39;29.00;99.90
31575;DHT22;18182;1.328;103.810;2022-08-05T02:47:06;29.00;99.90
31575;DHT22;18182;1.328;103.810;2022-08-05T02:49:34;29.00;99.90
31575;DHT22;18182;1.328;103.810;2022-08-05T02:52:01;29.00;99.90
31575;DHT22;18182;1.328;103.810;2022-08-05T02:54:27;29.10;99.90
31575;DHT22;18182;1.328;103.810;2022-08-05T02:56:54;29.20;99.90
31575;DHT22;18182;1.328;103.810;2022-08-05T02:59:20;29.30;99.90
31575;DHT22;18182;1.328;103.810;2022-08-05T03:01:47;29.30;99.90
31575;DHT22;18182;1.328;103.810;2022-08-05T03:04:16;29.40;99.90
31575;DHT22;18182;1.328;103.810;2022-08-05T03:06:44;29.30;99.90
31575;DHT22;18182;1.328;103.810;2022-08-05T03:09:11;29.40;99.90
31575;DHT22;18182;1.328;103.810;2022-08-05T03:11:40;29.40;99.90
31575;DHT22;18182;1.328;103.810;2022-08-05T03:14:06;29.40;99.90
31575;DHT22;18182;1.328;103.810;2022-08-05T03:16:32;29.40;99.90
31575;DHT22;18182;1.328;103.810;2022-08-05T03:18:59;29.40;99.90
31575;DHT22;18182;1.328;103.810;2022-08-05T03:21:25;29.40;99.90
31575;DHT22;18182;1.328;103.810;2022-08-05T03:23:51;29.40;99.90
31575;DHT22;18182;1.328;103.810;2022-08-05T03:26:18;29.40;99.90
31575;DHT22;18182;1.328;103.810;2022-08-05T03:28:44;29.50;99.90
31575;DHT22;18182;1.328;103.810;2022-08-05T03:31:11;29.50;99.90
31575;DHT22;18182;1.328;103.810;2022-08-05T03:33:37;29.40;99.90
31575;DHT22;18182;1.328;103.810;2022-08-05T03:36:04;29.50;99.90
31575;DHT22;18182;1.328;103.810;2022-08-05T03:38:30;29.40;99.90
31575;DHT22;18182;1.328;103.810;2022-08-05T03:40:56;29.50;99.90
31575;DHT22;18182;1.328;103.810;2022-08-05T03:43:22;29.50;99.90
31575;DHT22;18182;1.328;103.810;2022-08-05T03:45:51;29.60;99.90
31575;DHT22;18182;1.328;103.810;2022-08-05T03:48:20;29.70;99.90
31575;DHT22;18182;1.328;103.810;2022-08-05T03:53:14;29.70;99.90
31575;DHT22;18182;1.328;103.810;2022-08-05T03:55:45;29.70;99.90
31575;DHT22;18182;1.328;103.810;2022-08-05T03:58:15;29.70;99.90
31575;DHT22;18182;1.328;103.810;2022-08-05T04:00:42;29.80;99.90
31575;DHT22;18182;1.328;103.810;2022-08-05T04:03:10;29.80;99.90
31575;DHT22;18182;1.328;103.810;2022-08-05T04:05:37;29.80;99.90
31575;DHT22;18182;1.328;103.810;2022-08-05T04:08:04;29.70;99.90
31575;DHT22;18182;1.328;103.810;2022-08-05T04:10:30;29.60;99.90
31575;DHT22;18182;1.328;103.810;2022-08-05T04:12:57;29.60;99.90
31575;DHT22;18182;1.328;103.810;2022-08-05T04:15:24;29.60;99.90
31575;DHT22;18182;1.328;103.810;2022-08-05T04:17:50;29.70;99.90
31575;DHT22;18182;1.328;103.810;2022-08-05T04:20:20;29.70;99.90
31575;DHT22;18182;1.328;103.810;2022-08-05T04:22:46;29.80;99.90
31575;DHT22;18182;1.328;103.810;2022-08-05T04:25:12;29.80;99.90
31575;DHT22;18182;1.328;103.810;2022-08-05T04:27:39;29.90;99.90
31575;DHT22;18182;1.328;103.810;2022-08-05T04:30:05;29.80;99.90
31575;DHT22;18182;1.328;103.810;2022-08-05T04:32:32;29.80;99.90
31575;DHT22;18182;1.328;103.810;2022-08-05T04:34:58;29.80;99.90
31575;DHT22;18182;1.328;103.810;2022-08-05T04:37:24;29.70;99.90
31575;DHT22;18182;1.328;103.810;2022-08-05T04:39:50;29.80;99.90
31575;DHT22;18182;1.328;103.810;2022-08-05T04:42:16;29.70;99.90
31575;DHT22;18182;1.328;103.810;2022-08-05T04:44:42;29.80;99.90
31575;DHT22;18182;1.328;103.810;2022-08-05T04:47:08;29.80;99.90
31575;DHT22;18182;1.328;103.810;2022-08-05T04:49:35;29.80;99.90
31575;DHT22;18182;1.328;103.810;2022-08-05T04:52:01;29.80;99.90
31575;DHT22;18182;1.328;103.810;2022-08-05T04:54:27;29.80;99.90
31575;DHT22;18182;1.328;103.810;2022-08-05T04:56:53;29.80;99.90
31575;DHT22;18182;1.328;103.810;2022-08-05T04:59:20;29.80;99.90
31575;DHT22;18182;1.328;103.810;2022-08-05T05:01:47;29.80;99.90
31575;DHT22;18182;1.328;103.810;2022-08-05T05:04:14;29.80;99.90
31575;DHT22;18182;1.328;103.810;2022-08-05T05:06:40;29.80;99.90
31575;DHT22;18182;1.328;103.810;2022-08-05T05:09:06;29.90;99.90
31575;DHT22;18182;1.328;103.810;2022-08-05T05:11:32;30.00;99.90
31575;DHT22;18182;1.328;103.810;2022-08-05T05:13:58;30.00;99.90
31575;DHT22;18182;1.328;103.810;2022-08-05T05:16:25;29.90;99.90
31575;DHT22;18182;1.328;103.810;2022-08-05T05:18:51;29.90;99.90
31575;DHT22;18182;1.328;103.810;2022-08-05T05:21:17;29.90;99.90
31575;DHT22;18182;1.328;103.810;2022-08-05T05:23:43;29.90;99.90
31575;DHT22;18182;1.328;103.810;2022-08-05T05:26:09;29.90;99.90
31575;DHT22;18182;1.328;103.810;2022-08-05T05:28:35;30.00;99.90
31575;DHT22;18182;1.328;103.810;2022-08-05T05:31:02;30.10;99.90
31575;DHT22;18182;1.328;103.810;2022-08-05T05:33:28;30.10;99.90
31575;DHT22;18182;1.328;103.810;2022-08-05T05:35:54;30.20;99.90
31575;DHT22;18182;1.328;103.810;2022-08-05T05:38:20;30.20;99.90
31575;DHT22;18182;1.328;103.810;2022-08-05T05:40:46;30.30;99.90
31575;DHT22;18182;1.328;103.810;2022-08-05T05:43:12;30.30;99.90
31575;DHT22;18182;1.328;103.810;2022-08-05T05:45:38;30.30;99.90
31575;DHT22;18182;1.328;103.810;2022-08-05T05:48:04;30.40;99.90
31575;DHT22;18182;1.328;103.810;2022-08-05T05:50:32;30.40;99.90
31575;DHT22;18182;1.328;103.810;2022-08-05T05:52:58;30.40;99.90
31575;DHT22;18182;1.328;103.810;2022-08-05T05:55:24;30.40;99.90
31575;DHT22;18182;1.328;103.810;2022-08-05T05:57:50;30.30;99.90
31575;DHT22;18182;1.328;103.810;2022-08-05T06:00:17;30.30;99.90
31575;DHT22;18182;1.328;103.810;2022-08-05T06:02:44;30.30;99.90
31575;DHT22;18182;1.328;103.810;2022-08-05T06:05:13;30.30;99.90
31575;DHT22;18182;1.328;103.810;2022-08-05T06:07:39;30.20;99.90
31575;DHT22;18182;1.328;103.810;2022-08-05T06:10:06;30.20;99.90
31575;DHT22;18182;1.328;103.810;2022-08-05T06:12:33;30.20;99.90
31575;DHT22;18182;1.328;103.810;2022-08-05T06:15:00;30.30;99.90
31575;DHT22;18182;1.328;103.810;2022-08-05T06:17:26;30.30;99.90
31575;DHT22;18182;1.328;103.810;2022-08-05T06:19:52;30.30;99.90
31575;DHT22;18182;1.328;103.810;2022-08-05T06:22:22;30.30;99.90
31575;DHT22;18182;1.328;103.810;2022-08-05T06:24:49;30.30;99.90
31575;DHT22;18182;1.328;103.810;2022-08-05T06:27:15;30.20;99.90
31575;DHT22;18182;1.328;103.810;2022-08-05T06:29:41;30.10;99.90
31575;DHT22;18182;1.328;103.810;2022-08-05T06:32:08;30.10;99.90
31575;DHT22;18182;1.328;103.810;2022-08-05T06:34:34;30.00;99.90
31575;DHT22;18182;1.328;103.810;2022-08-05T06:37:00;30.00;99.90
31575;DHT22;18182;1.328;103.810;2022-08-05T06:39:26;30.00;99.90
31575;DHT22;18182;1.328;103.810;2022-08-05T06:41:53;29.90;99.90
31575;DHT22;18182;1.328;103.810;2022-08-05T06:44:20;29.90;99.90
31575;DHT22;18182;1.328;103.810;2022-08-05T06:46:46;29.90;99.90
31575;DHT22;18182;1.328;103.810;2022-08-05T06:49:12;29.90;99.90
31575;DHT22;18182;1.328;103.810;2022-08-05T06:51:38;29.90;99.90
31575;DHT22;18182;1.328;103.810;2022-08-05T06:54:05;30.00;99.90
31575;DHT22;18182;1.328;103.810;2022-08-05T06:56:31;29.90;99.90
31575;DHT22;18182;1.328;103.810;2022-08-05T06:58:57;30.00;99.90
31575;DHT22;18182;1.328;103.810;2022-08-05T07:01:23;30.00;99.90
31575;DHT22;18182;1.328;103.810;2022-08-05T07:03:50;30.00;99.90
31575;DHT22;18182;1.328;103.810;2022-08-05T07:06:16;29.90;99.90
31575;DHT22;18182;1.328;103.810;2022-08-05T07:08:43;30.00;99.90
31575;DHT22;18182;1.328;103.810;2022-08-05T07:11:09;30.00;99.90
31575;DHT22;18182;1.328;103.810;2022-08-05T07:13:36;30.00;99.90
31575;DHT22;18182;1.328;103.810;2022-08-05T07:16:20;30.10;99.90
31575;DHT22;18182;1.328;103.810;2022-08-05T07:19:04;30.10;99.90
31575;DHT22;18182;1.328;103.810;2022-08-05T07:21:31;30.10;99.90
31575;DHT22;18182;1.328;103.810;2022-08-05T07:23:57;30.10;99.90
31575;DHT22;18182;1.328;103.810;2022-08-05T07:26:23;30.10;99.90
31575;DHT22;18182;1.328;103.810;2022-08-05T07:28:49;30.00;99.90
31575;DHT22;18182;1.328;103.810;2022-08-05T07:31:16;30.10;99.90
31575;DHT22;18182;1.328;103.810;2022-08-05T07:33:42;30.00;99.90
31575;DHT22;18182;1.328;103.810;2022-08-05T07:36:08;30.10;99.90
31575;DHT22;18182;1.328;103.810;2022-08-05T07:38:35;30.00;99.90
31575;DHT22;18182;1.328;103.810;2022-08-05T07:41:07;30.00;99.90
31575;DHT22;18182;1.328;103.810;2022-08-05T07:43:33;29.90;99.90
31575;DHT22;18182;1.328;103.810;2022-08-05T07:45:59;29.80;99.90
31575;DHT22;18182;1.328;103.810;2022-08-05T07:48:25;29.80;99.90
31575;DHT22;18182;1.328;103.810;2022-08-05T07:50:51;29.90;99.90
31575;DHT22;18182;1.328;103.810;2022-08-05T07:53:17;29.90;99.90
31575;DHT22;18182;1.328;103.810;2022-08-05T07:55:44;29.90;99.90
31575;DHT22;18182;1.328;103.810;2022-08-05T07:58:10;29.90;99.90
31575;DHT22;18182;1.328;103.810;2022-08-05T08:00:36;29.90;99.90
31575;DHT22;18182;1.328;103.810;2022-08-05T08:03:02;29.90;99.90
31575;DHT22;18182;1.328;103.810;2022-08-05T08:05:28;30.00;99.90
31575;DHT22;18182;1.328;103.810;2022-08-05T08:07:55;30.10;99.90
31575;DHT22;18182;1.328;103.810;2022-08-05T08:10:21;30.00;99.90
31575;DHT22;18182;1.328;103.810;2022-08-05T08:12:50;30.00;99.90
31575;DHT22;18182;1.328;103.810;2022-08-05T08:15:16;30.00;99.90
31575;DHT22;18182;1.328;103.810;2022-08-05T08:17:43;30.10;99.90
31575;DHT22;18182;1.328;103.810;2022-08-05T08:20:09;30.10;99.90
31575;DHT22;18182;1.328;103.810;2022-08-05T08:22:36;30.10;99.90
31575;DHT22;18182;1.328;103.810;2022-08-05T08:25:02;30.10;99.90
31575;DHT22;18182;1.328;103.810;2022-08-05T08:27:28;30.10;99.90
31575;DHT22;18182;1.328;103.810;2022-08-05T08:29:55;30.10;99.90
31575;DHT22;18182;1.328;103.810;2022-08-05T08:32:21;30.10;99.90
31575;DHT22;18182;1.328;103.810;2022-08-05T08:34:47;30.10;99.90
31575;DHT22;18182;1.328;103.810;2022-08-05T08:37:15;30.10;99.90
31575;DHT22;18182;1.328;103.810;2022-08-05T08:39:41;30.10;99.90
31575;DHT22;18182;1.328;103.810;2022-08-05T08:42:08;30.00;99.90
31575;DHT22;18182;1.328;103.810;2022-08-05T08:44:34;29.90;99.90
31575;DHT22;18182;1.328;103.810;2022-08-05T08:47:04;29.90;99.90
31575;DHT22;18182;1.328;103.810;2022-08-05T08:49:32;29.90;99.90
31575;DHT22;18182;1.328;103.810;2022-08-05T08:52:12;29.90;99.90
31575;DHT22;18182;1.328;103.810;2022-08-05T08:54:38;29.90;99.90
31575;DHT22;18182;1.328;103.810;2022-08-05T08:57:05;29.80;99.90
31575;DHT22;18182;1.328;103.810;2022-08-05T08:59:32;29.80;99.90
31575;DHT22;18182;1.328;103.810;2022-08-05T09:01:59;29.80;99.90
31575;DHT22;18182;1.328;103.810;2022-08-05T09:04:26;29.80;99.90
31575;DHT22;18182;1.328;103.810;2022-08-05T09:06:53;29.80;99.90
31575;DHT22;18182;1.328;103.810;2022-08-05T09:09:19;29.80;99.90
31575;DHT22;18182;1.328;103.810;2022-08-05T09:11:46;29.80;99.90
31575;DHT22;18182;1.328;103.810;2022-08-05T09:14:12;29.70;99.90
31575;DHT22;18182;1.328;103.810;2022-08-05T09:16:38;29.70;99.90
31575;DHT22;18182;1.328;103.810;2022-08-05T09:19:06;29.60;99.90
31575;DHT22;18182;1.328;103.810;2022-08-05T09:21:32;29.60;99.90
31575;DHT22;18182;1.328;103.810;2022-08-05T09:24:05;29.60;99.90
31575;DHT22;18182;1.328;103.810;2022-08-05T09:26:35;29.60;99.90
31575;DHT22;18182;1.328;103.810;2022-08-05T09:29:03;29.60;99.90
31575;DHT22;18182;1.328;103.810;2022-08-05T09:31:30;29.60;99.90
31575;DHT22;18182;1.328;103.810;2022-08-05T09:34:00;29.60;99.90
31575;DHT22;18182;1.328;103.810;2022-08-05T09:36:46;29.60;99.90
31575;DHT22;18182;1.328;103.810;2022-08-05T09:39:17;29.60;99.90
31575;DHT22;18182;1.328;103.810;2022-08-05T09:41:57;29.50;99.90
31575;DHT22;18182;1.328;103.810;2022-08-05T09:47:09;29.40;99.90
31575;DHT22;18182;1.328;103.810;2022-08-05T09:49:47;29.50;99.90
31575;DHT22;18182;1.328;103.810;2022-08-05T09:52:20;29.50;99.90
31575;DHT22;18182;1.328;103.810;2022-08-05T09:55:00;29.50;99.90
31575;DHT22;18182;1.328;103.810;2022-08-05T09:59:56;29.40;99.90
31575;DHT22;18182;1.328;103.810;2022-08-05T10:02:32;29.40;99.90
31575;DHT22;18182;1.328;103.810;2022-08-05T10:05:02;29.30;99.90
31575;DHT22;18182;1.328;103.810;2022-08-05T10:10:14;29.30;99.90
31575;DHT22;18182;1.328;103.810;2022-08-05T10:12:44;29.20;99.90
31575;DHT22;18182;1.328;103.810;2022-08-05T10:17:43;29.30;99.90
31575;DHT22;18182;1.328;103.810;2022-08-05T10:20:10;29.30;99.90
31575;DHT22;18182;1.328;103.810;2022-08-05T10:22:41;29.30;99.90
31575;DHT22;18182;1.328;103.810;2022-08-05T10:25:07;29.20;99.90
31575;DHT22;18182;1.328;103.810;2022-08-05T10:27:34;29.20;99.90
31575;DHT22;18182;1.328;103.810;2022-08-05T10:30:00;29.20;99.90
31575;DHT22;18182;1.328;103.810;2022-08-05T10:32:26;29.20;99.90
31575;DHT22;18182;1.328;103.810;2022-08-05T10:34:52;29.20;99.90
31575;DHT22;18182;1.328;103.810;2022-08-05T10:37:19;29.20;99.90
31575;DHT22;18182;1.328;103.810;2022-08-05T10:39:46;29.20;99.90
31575;DHT22;18182;1.328;103.810;2022-08-05T10:42:16;29.30;99.90
31575;DHT22;18182;1.328;103.810;2022-08-05T10:44:44;29.30;99.90
31575;DHT22;18182;1.328;103.810;2022-08-05T10:47:11;29.30;99.90
31575;DHT22;18182;1.328;103.810;2022-08-05T10:52:39;29.30;99.90
31575;DHT22;18182;1.328;103.810;2022-08-05T10:55:07;29.30;99.90
31575;DHT22;18182;1.328;103.810;2022-08-05T10:57:34;29.30;99.90
31575;DHT22;18182;1.328;103.810;2022-08-05T11:00:15;29.30;99.90
31575;DHT22;18182;1.328;103.810;2022-08-05T11:05:26;29.30;99.90
31575;DHT22;18182;1.328;103.810;2022-08-05T11:07:56;29.30;99.90
31575;DHT22;18182;1.328;103.810;2022-08-05T11:10:23;29.30;99.90
31575;DHT22;18182;1.328;103.810;2022-08-05T11:12:50;29.30;99.90
31575;DHT22;18182;1.328;103.810;2022-08-05T11:17:46;29.30;99.90
31575;DHT22;18182;1.328;103.810;2022-08-05T11:20:34;29.20;99.90
31575;DHT22;18182;1.328;103.810;2022-08-05T11:23:23;29.20;99.90
31575;DHT22;18182;1.328;103.810;2022-08-05T11:25:59;29.20;99.90
31575;DHT22;18182;1.328;103.810;2022-08-05T11:33:30;29.10;99.90
31575;DHT22;18182;1.328;103.810;2022-08-05T11:35:58;29.10;99.90
31575;DHT22;18182;1.328;103.810;2022-08-05T11:38:57;29.20;99.90
31575;DHT22;18182;1.328;103.810;2022-08-05T11:41:22;29.20;99.90
31575;DHT22;18182;1.328;103.810;2022-08-05T11:43:58;29.20;99.90
31575;DHT22;18182;1.328;103.810;2022-08-05T11:46:29;29.20;99.90
31575;DHT22;18182;1.328;103.810;2022-08-05T11:48:55;29.20;99.90
31575;DHT22;18182;1.328;103.810;2022-08-05T11:51:22;29.10;99.90
31575;DHT22;18182;1.328;103.810;2022-08-05T11:53:49;29.10;99.90
31575;DHT22;18182;1.328;103.810;2022-08-05T11:56:16;29.10;99.90
31575;DHT22;18182;1.328;103.810;2022-08-05T11:58:43;29.10;99.90
31575;DHT22;18182;1.328;103.810;2022-08-05T12:01:10;29.10;99.90
31575;DHT22;18182;1.328;103.810;2022-08-05T12:03:41;29.10;99.90
31575;DHT22;18182;1.328;103.810;2022-08-05T12:06:08;29.10;99.90
31575;DHT22;18182;1.328;103.810;2022-08-05T12:08:54;29.00;99.90
31575;DHT22;18182;1.328;103.810;2022-08-05T12:11:26;28.90;99.90
31575;DHT22;18182;1.328;103.810;2022-08-05T12:14:00;28.90;99.90
31575;DHT22;18182;1.328;103.810;2022-08-05T12:16:47;28.90;99.90
31575;DHT22;18182;1.328;103.810;2022-08-05T12:19:13;28.80;99.90
31575;DHT22;18182;1.328;103.810;2022-08-05T12:21:44;28.80;99.90
31575;DHT22;18182;1.328;103.810;2022-08-05T12:24:12;28.70;99.90
31575;DHT22;18182;1.328;103.810;2022-08-05T12:29:12;28.70;99.90
31575;DHT22;18182;1.328;103.810;2022-08-05T12:31:39;28.70;99.90
31575;DHT22;18182;1.328;103.810;2022-08-05T12:34:06;28.70;99.90
31575;DHT22;18182;1.328;103.810;2022-08-05T12:36:33;28.80;99.90
31575;DHT22;18182;1.328;103.810;2022-08-05T12:39:00;28.80;99.90
31575;DHT22;18182;1.328;103.810;2022-08-05T12:41:31;28.80;99.90
31575;DHT22;18182;1.328;103.810;2022-08-05T12:43:58;28.80;99.90
31575;DHT22;18182;1.328;103.810;2022-08-05T12:46:26;28.80;99.90
31575;DHT22;18182;1.328;103.810;2022-08-05T12:49:04;28.90;99.90
31575;DHT22;18182;1.328;103.810;2022-08-05T12:51:31;28.90;99.90
31575;DHT22;18182;1.328;103.810;2022-08-05T12:54:07;29.00;99.90
31575;DHT22;18182;1.328;103.810;2022-08-05T12:56:34;28.90;99.90
31575;DHT22;18182;1.328;103.810;2022-08-05T12:59:12;28.90;99.90
31575;DHT22;18182;1.328;103.810;2022-08-05T13:01:40;29.00;99.90
31575;DHT22;18182;1.328;103.810;2022-08-05T13:04:06;29.00;99.90
31575;DHT22;18182;1.328;103.810;2022-08-05T13:06:32;29.00;99.90
31575;DHT22;18182;1.328;103.810;2022-08-05T13:09:08;29.00;99.90
31575;DHT22;18182;1.328;103.810;2022-08-05T13:11:39;29.00;99.90
31575;DHT22;18182;1.328;103.810;2022-08-05T13:14:24;29.00;99.90
31575;DHT22;18182;1.328;103.810;2022-08-05T13:16:51;29.00;99.90
31575;DHT22;18182;1.328;103.810;2022-08-05T13:19:20;29.00;99.90
31575;DHT22;18182;1.328;103.810;2022-08-05T13:21:47;29.00;99.90
31575;DHT22;18182;1.328;103.810;2022-08-05T13:24:13;29.00;99.90
31575;DHT22;18182;1.328;103.810;2022-08-05T13:26:42;29.00;99.90
31575;DHT22;18182;1.328;103.810;2022-08-05T13:29:08;29.10;99.90
31575;DHT22;18182;1.328;103.810;2022-08-05T13:31:34;29.20;99.90
31575;DHT22;18182;1.328;103.810;2022-08-05T13:34:00;29.20;99.90
31575;DHT22;18182;1.328;103.810;2022-08-05T13:36:26;29.20;99.90
31575;DHT22;18182;1.328;103.810;2022-08-05T13:38:53;29.30;99.90
31575;DHT22;18182;1.328;103.810;2022-08-05T13:41:19;29.20;99.90
31575;DHT22;18182;1.328;103.810;2022-08-05T13:43:45;29.30;99.90
31575;DHT22;18182;1.328;103.810;2022-08-05T13:46:11;29.30;99.90
31575;DHT22;18182;1.328;103.810;2022-08-05T13:48:38;29.30;99.90
31575;DHT22;18182;1.328;103.810;2022-08-05T13:51:07;29.30;99.90
31575;DHT22;18182;1.328;103.810;2022-08-05T13:53:37;29.30;99.90
31575;DHT22;18182;1.328;103.810;2022-08-05T13:56:03;29.30;99.90
31575;DHT22;18182;1.328;103.810;2022-08-05T13:58:29;29.30;99.90
31575;DHT22;18182;1.328;103.810;2022-08-05T14:00:55;29.30;99.90
31575;DHT22;18182;1.328;103.810;2022-08-05T14:03:21;29.30;99.90
31575;DHT22;18182;1.328;103.810;2022-08-05T14:05:47;29.20;99.90
31575;DHT22;18182;1.328;103.810;2022-08-05T14:08:14;29.20;99.90
31575;DHT22;18182;1.328;103.810;2022-08-05T14:10:40;29.20;99.90
31575;DHT22;18182;1.328;103.810;2022-08-05T14:13:07;29.20;99.90
31575;DHT22;18182;1.328;103.810;2022-08-05T14:15:33;29.20;99.90
31575;DHT22;18182;1.328;103.810;2022-08-05T14:17:59;29.20;99.90
31575;DHT22;18182;1.328;103.810;2022-08-05T14:20:26;29.20;99.90
31575;DHT22;18182;1.328;103.810;2022-08-05T14:22:54;29.10;99.90
31575;DHT22;18182;1.328;103.810;2022-08-05T14:25:20;29.10;99.90
31575;DHT22;18182;1.328;103.810;2022-08-05T14:27:46;29.10;99.90
31575;DHT22;18182;1.328;103.810;2022-08-05T14:30:14;29.00;99.90
31575;DHT22;18182;1.328;103.810;2022-08-05T14:32:40;29.00;99.90
31575;DHT22;18182;1.328;103.810;2022-08-05T14:35:07;29.00;99.90
31575;DHT22;18182;1.328;103.810;2022-08-05T14:37:33;29.00;99.90
31575;DHT22;18182;1.328;103.810;2022-08-05T14:40:00;29.00;99.90
31575;DHT22;18182;1.328;103.810;2022-08-05T14:42:26;29.00;99.90
31575;DHT22;18182;1.328;103.810;2022-08-05T14:44:52;28.90;99.90
31575;DHT22;18182;1.328;103.810;2022-08-05T14:47:18;28.90;99.90
31575;DHT22;18182;1.328;103.810;2022-08-05T14:49:45;28.90;99.90
31575;DHT22;18182;1.328;103.810;2022-08-05T14:52:11;29.00;99.90
31575;DHT22;18182;1.328;103.810;2022-08-05T14:54:37;29.00;99.90
31575;DHT22;18182;1.328;103.810;2022-08-05T14:57:03;29.00;99.90
31575;DHT22;18182;1.328;103.810;2022-08-05T14:59:30;29.00;99.90
31575;DHT22;18182;1.328;103.810;2022-08-05T15:01:56;29.00;99.90
31575;DHT22;18182;1.328;103.810;2022-08-05T15:04:22;29.10;99.90
31575;DHT22;18182;1.328;103.810;2022-08-05T15:06:49;29.00;99.90
31575;DHT22;18182;1.328;103.810;2022-08-05T15:09:16;29.10;99.90
31575;DHT22;18182;1.328;103.810;2022-08-05T15:11:42;29.10;99.90
31575;DHT22;18182;1.328;103.810;2022-08-05T15:14:08;29.00;99.90
31575;DHT22;18182;1.328;103.810;2022-08-05T15:16:34;29.00;99.90
31575;DHT22;18182;1.328;103.810;2022-08-05T15:19:01;29.00;99.90
31575;DHT22;18182;1.328;103.810;2022-08-05T15:21:27;28.90;99.90
31575;DHT22;18182;1.328;103.810;2022-08-05T15:23:53;28.90;99.90
31575;DHT22;18182;1.328;103.810;2022-08-05T15:26:19;28.80;99.90
31575;DHT22;18182;1.328;103.810;2022-08-05T15:28:45;28.80;99.90
31575;DHT22;18182;1.328;103.810;2022-08-05T15:31:11;28.90;99.90
31575;DHT22;18182;1.328;103.810;2022-08-05T15:33:38;28.90;99.90
31575;DHT22;18182;1.328;103.810;2022-08-05T15:36:04;28.90;99.90
31575;DHT22;18182;1.328;103.810;2022-08-05T15:38:33;28.90;99.90
31575;DHT22;18182;1.328;103.810;2022-08-05T15:40:59;28.90;99.90
31575;DHT22;18182;1.328;103.810;2022-08-05T15:43:26;28.90;99.90
31575;DHT22;18182;1.328;103.810;2022-08-05T15:45:52;28.90;99.90
31575;DHT22;18182;1.328;103.810;2022-08-05T15:48:18;28.90;99.90
31575;DHT22;18182;1.328;103.810;2022-08-05T15:50:45;28.90;99.90
31575;DHT22;18182;1.328;103.810;2022-08-05T15:53:12;28.90;99.90
31575;DHT22;18182;1.328;103.810;2022-08-05T15:55:39;28.90;99.90
31575;DHT22;18182;1.328;103.810;2022-08-05T15:58:05;28.90;99.90
31575;DHT22;18182;1.328;103.810;2022-08-05T16:00:32;28.90;99.90